Time;durP1;ratioP1;P1;durP2;ratioP2;P2;SDS_P1;SDS_P2;PMS_P1;PMS_P2;Temp;Humidity;BMP_temperature;BMP_pressure;BME280_temperature;BME280_humidity;BME280_pressure;Samples;Min_cycle;Max_cycle;Signal;HPM_P1;HPM_P2
2022/06/26 04:12:15;;;;;;;2.08;1.40;;;;;;;18.70;61.62;96554.53;6164514;23;19995;-82
2022/06/26 04:14:43;;;;;;;4.40;1.40;;;;;;;18.65;61.83;96542.03;6164148;23;20029;-80
2022/06/26 04:17:10;;;;;;;1.98;1.35;;;;;;;18.60;62.00;96543.75;6165198;23;20077;-79
2022/06/26 04:19:38;;;;;;;1.58;1.48;;;;;;;18.57;62.37;96545.03;6165847;23;20018;-80
2022/06/26 04:22:06;;;;;;;8.18;1.40;;;;;;;18.59;62.42;96550.88;6165569;23;20053;-80
2022/06/26 05:34:46;;;;;;;2.10;1.27;;;;;;;19.64;60.99;96563.91;6152080;23;20037;-80
2022/06/26 05:37:14;;;;;;;1.58;1.17;;;;;;;19.67;60.97;96563.41;6160610;23;20080;-79
2022/06/26 05:39:41;;;;;;;1.23;1.02;;;;;;;19.69;60.95;96564.78;6161060;23;20048;-77
2022/06/26 05:42:09;;;;;;;1.48;1.30;;;;;;;19.72;60.83;96572.28;6160595;23;20101;-79
2022/06/26 05:44:36;;;;;;;3.95;1.30;;;;;;;19.76;60.95;96575.22;6161719;23;20025;-79
2022/06/26 06:08:58;;;;;;;2.17;1.20;;;;;;;20.07;60.61;96578.34;6124628;23;20819;-80
2022/06/26 06:16:49;;;;;;;1.63;1.53;;;;;;;20.21;60.38;96578.81;6176589;23;20005;-80
2022/06/26 06:30:45;;;;;;;1.85;1.40;;;;;;;20.58;60.53;96587.81;6179735;23;20017;-80
2022/06/26 06:47:53;;;;;;;1.70;1.40;;;;;;;21.09;58.70;96578.88;6154599;23;20204;-79
2022/06/26 06:58:32;;;;;;;2.10;1.48;;;;;;;21.47;58.62;96579.78;6176942;23;20049;-78
2022/06/26 07:01:05;;;;;;;3.15;1.30;;;;;;;21.54;58.48;96585.72;6183895;23;20037;-80
2022/06/26 07:09:14;;;;;;;1.60;1.50;;;;;;;21.81;57.48;96580.34;6180003;23;20004;-80
2022/06/26 07:19:53;;;;;;;2.55;1.60;;;;;;;22.14;56.73;96581.13;6181728;23;19924;-80
2022/06/26 07:25:16;;;;;;;2.78;1.40;;;;;;;22.32;56.13;96577.25;6166230;23;20032;-80
2022/06/26 11:46:54;;;;;;;0.63;0.60;;;;;;;28.81;38.56;96486.38;6147580;23;20028;-76
2022/06/26 11:49:24;;;;;;;0.60;0.43;;;;;;;28.86;37.82;96467.47;6156229;23;20104;-79
2022/06/26 11:51:58;;;;;;;0.45;0.30;;;;;;;28.90;37.12;96481.88;6155278;23;20022;-77
2022/06/26 11:54:25;;;;;;;1.80;1.70;;;;;;;28.92;37.69;96471.63;6156027;23;20100;-79
2022/06/26 11:56:53;;;;;;;0.90;0.90;;;;;;;28.95;37.93;96469.13;6155691;23;20017;-78
2022/06/26 12:01:55;;;;;;;0.93;0.50;;;;;;;29.05;37.03;96478.84;6146360;23;20032;-83
2022/06/26 12:04:23;;;;;;;5.15;3.53;;;;;;;29.09;37.81;96471.81;6143180;23;20057;-83
2022/06/26 12:06:52;;;;;;;0.90;0.90;;;;;;;29.12;37.29;96468.50;6143264;23;20026;-84
2022/06/26 12:09:23;;;;;;;0.73;0.70;;;;;;;29.15;37.40;96456.38;6141502;23;20018;-84
2022/06/26 12:11:53;;;;;;;1.38;0.73;;;;;;;29.17;36.24;96468.41;6112201;23;20359;-84
2022/06/26 12:14:22;;;;;;;0.75;0.60;;;;;;;29.19;35.76;96478.03;6112080;23;20026;-83
2022/06/26 12:16:52;;;;;;;0.35;0.35;;;;;;;29.19;35.77;96478.03;6110928;23;20026;-83
2022/06/26 12:19:21;;;;;;;0.40;0.40;;;;;;;29.21;35.79;96465.09;6111923;23;20033;-84
2022/06/26 12:21:51;;;;;;;1.30;1.20;;;;;;;29.25;35.23;96466.06;6109825;23;20055;-84
2022/06/26 12:24:20;;;;;;;1.20;0.82;;;;;;;29.26;34.32;96456.94;6109528;23;20022;-83
2022/06/26 12:26:48;;;;;;;1.30;1.17;;;;;;;29.28;35.14;96454.69;6109502;23;20034;-85
2022/06/26 12:29:18;;;;;;;0.30;0.30;;;;;;;29.27;33.94;96447.75;6109438;23;20018;-84
2022/06/26 12:31:52;;;;;;;1.45;1.20;;;;;;;29.27;33.96;96447.75;6109567;23;20022;-83
2022/06/26 12:34:19;;;;;;;1.02;1.02;;;;;;;29.25;33.82;96445.38;6108721;23;20455;-83
2022/06/26 12:36:50;;;;;;;0.65;0.65;;;;;;;29.26;33.95;96446.97;6107427;23;20082;-83
2022/06/26 12:39:17;;;;;;;1.27;0.40;;;;;;;29.27;34.67;96445.06;6108484;23;20030;-83
2022/06/26 12:42:06;;;;;;;0.77;0.77;;;;;;;29.27;35.03;96445.84;6107068;23;20028;-83
2022/06/26 12:44:33;;;;;;;0.75;0.43;;;;;;;29.26;34.45;96440.81;6106892;23;20074;-83
2022/06/26 12:47:01;;;;;;;0.82;0.50;;;;;;;29.26;34.88;96435.44;6107884;23;20513;-83
2022/06/26 12:49:29;;;;;;;0.88;0.60;;;;;;;29.31;35.39;96448.72;6105976;23;20026;-83
2022/06/26 12:51:58;;;;;;;1.17;0.45;;;;;;;29.31;35.02;96443.34;6105471;23;20179;-83
2022/06/26 12:54:25;;;;;;;0.52;0.43;;;;;;;29.33;34.88;96433.88;6105664;23;20061;-83
2022/06/26 12:56:53;;;;;;;0.95;0.43;;;;;;;29.35;35.31;96438.97;6107555;23;20416;-83
2022/06/26 12:59:20;;;;;;;0.63;0.60;;;;;;;29.37;34.65;96439.44;6110787;23;20018;-83
2022/06/26 13:01:48;;;;;;;0.77;0.40;;;;;;;29.38;35.10;96432.97;6108456;23;20050;-84
2022/06/26 13:04:16;;;;;;;0.90;0.40;;;;;;;29.40;34.80;96433.44;6111698;23;20033;-83
2022/06/26 13:06:44;;;;;;;0.90;0.30;;;;;;;29.41;34.39;96424.31;6110602;23;20033;-83
2022/06/26 13:09:12;;;;;;;1.70;0.50;;;;;;;29.44;34.88;96429.06;6110479;23;20494;-82
2022/06/26 13:11:42;;;;;;;0.30;0.30;;;;;;;29.45;34.04;96429.84;6110533;23;20026;-84
2022/06/26 13:14:09;;;;;;;1.60;0.40;;;;;;;29.44;33.73;96433.63;6112342;23;20467;-83
2022/06/26 13:16:39;;;;;;;0.80;0.40;;;;;;;29.41;33.75;96436.91;6111901;23;20371;-83
2022/06/26 13:19:07;;;;;;;2.88;0.52;;;;;;;29.38;34.34;96428.38;6110531;23;20025;-83
2022/06/26 13:21:35;;;;;;;1.25;1.02;;;;;;;29.36;34.98;96437.84;6108778;23;20026;-83
2022/06/26 13:24:03;;;;;;;1.02;1.00;;;;;;;29.37;35.74;96439.44;6110338;23;20026;-84
2022/06/26 13:26:38;;;;;;;0.65;0.50;;;;;;;29.38;34.79;96441.03;6109974;23;20032;-83
2022/06/26 13:29:06;;;;;;;0.50;0.50;;;;;;;29.37;35.19;96437.56;6108661;23;20062;-83
2022/06/26 13:31:34;;;;;;;1.33;0.60;;;;;;;29.37;34.68;96439.44;6107979;23;20018;-83
2022/06/26 13:34:02;;;;;;;2.25;0.77;;;;;;;29.37;35.48;96423.31;6108150;23;20357;-83
2022/06/26 13:36:29;;;;;;;0.40;0.40;;;;;;;29.40;34.74;96433.44;6108184;23;20026;-83
2022/06/26 13:38:57;;;;;;;0.40;0.40;;;;;;;29.40;34.10;96422.69;6107811;23;20396;-84
2022/06/26 13:41:24;;;;;;;0.30;0.30;;;;;;;29.42;34.58;96423.19;6106914;23;20363;-83
2022/06/26 13:43:53;;;;;;;1.85;1.58;;;;;;;29.44;33.35;96430.94;6106677;23;20037;-83
2022/06/26 13:46:21;;;;;;;2.65;0.63;;;;;;;29.47;33.81;96425.75;6106901;23;20018;-83
2022/06/26 13:48:49;;;;;;;1.20;0.80;;;;;;;29.52;33.64;96427.53;6106853;23;20109;-83
2022/06/26 13:51:16;;;;;;;0.95;0.60;;;;;;;29.55;33.19;96416.94;6106598;23;20018;-83
2022/06/26 13:53:44;;;;;;;0.40;0.40;;;;;;;29.56;33.53;96415.84;6106745;23;20026;-83
2022/06/26 13:56:12;;;;;;;0.43;0.40;;;;;;;29.58;33.04;96415.53;6106527;23;20359;-84
2022/06/26 13:58:39;;;;;;;0.50;0.50;;;;;;;29.57;33.50;96408.56;6107135;23;20082;-83
2022/06/26 14:01:08;;;;;;;1.80;0.30;;;;;;;29.55;33.24;96410.78;6106375;23;20451;-83
2022/06/26 14:03:36;;;;;;;0.35;0.35;;;;;;;29.55;32.89;96411.56;6106387;23;20026;-83
2022/06/26 14:06:10;;;;;;;0.55;0.52;;;;;;;29.55;34.27;96403.50;6105583;23;20351;-82
2022/06/26 14:08:38;;;;;;;4.20;2.45;;;;;;;29.57;33.94;96409.34;6105218;23;20059;-83
2022/06/26 14:11:05;;;;;;;0.75;0.40;;;;;;;29.58;33.36;96415.53;6106489;23;20098;-83
2022/06/26 14:13:33;;;;;;;0.40;0.40;;;;;;;29.56;33.37;96407.78;6111365;23;20034;-84
2022/06/26 14:16:01;;;;;;;0.70;0.40;;;;;;;29.58;33.81;96405.59;6113162;23;20026;-84
2022/06/26 14:18:30;;;;;;;1.83;0.40;;;;;;;29.62;34.43;96415.72;6108614;23;20362;-84
2022/06/26 14:20:58;;;;;;;0.50;0.38;;;;;;;29.66;34.66;96408.63;6120275;23;20013;-84
2022/06/26 14:26:10;;;;;;;0.75;0.47;;;;;;;29.71;35.15;96416.56;6117098;23;20050;-84
2022/06/26 14:28:38;;;;;;;0.60;0.32;;;;;;;29.69;34.45;96416.06;6114197;23;20027;-84
2022/06/26 14:31:07;;;;;;;0.65;0.65;;;;;;;29.63;34.38;96414.59;6112389;23;20022;-84
2022/06/26 14:33:36;;;;;;;1.13;0.52;;;;;;;29.54;34.43;96415.38;6112988;23;20022;-85
2022/06/26 14:36:05;;;;;;;0.90;0.90;;;;;;;29.48;34.44;96405.84;6111918;23;20086;-83
2022/06/26 14:38:33;;;;;;;0.63;0.50;;;;;;;29.45;34.14;96406.44;6111845;23;20058;-84
2022/06/26 14:41:08;;;;;;;0.47;0.40;;;;;;;29.44;34.72;96401.41;6110179;23;20025;-85
2022/06/26 14:43:41;;;;;;;0.52;0.52;;;;;;;29.43;34.75;96410.53;6116205;23;20025;-84
2022/06/26 14:46:08;;;;;;;0.63;0.63;;;;;;;29.39;34.47;96402.31;6113738;23;20022;-84
2022/06/26 14:48:37;;;;;;;1.70;0.70;;;;;;;29.36;35.32;96410.97;6112994;23;20030;-84
2022/06/26 14:51:05;;;;;;;0.40;0.40;;;;;;;29.33;34.83;96408.91;6111633;23;20025;-84
2022/06/26 14:53:33;;;;;;;0.70;0.45;;;;;;;29.33;35.29;96403.56;6111963;23;20029;-84
2022/06/26 14:56:01;;;;;;;0.82;0.60;;;;;;;29.32;35.03;96401.94;6110510;23;20494;-84
2022/06/26 14:58:28;;;;;;;0.40;0.40;;;;;;;29.33;35.13;96403.56;6110481;23;20029;-84
2022/06/26 15:00:56;;;;;;;0.57;0.57;;;;;;;29.34;35.13;96399.75;6110669;23;20022;-85
2022/06/26 15:03:24;;;;;;;0.30;0.30;;;;;;;29.36;35.29;96392.19;6112198;23;20054;-84
2022/06/26 15:05:53;;;;;;;0.95;0.40;;;;;;;29.36;35.19;96397.53;6111537;23;20419;-84
2022/06/26 15:08:23;;;;;;;0.32;0.30;;;;;;;29.35;35.08;96395.97;6111861;23;20045;-84
2022/06/26 15:10:51;;;;;;;0.50;0.50;;;;;;;29.33;34.68;96387.44;6110540;23;20041;-84
2022/06/26 15:13:19;;;;;;;0.65;0.43;;;;;;;29.29;34.05;96392.59;6110821;23;20026;-84
2022/06/26 15:15:46;;;;;;;2.58;0.50;;;;;;;29.24;34.28;96387.38;6109287;23;20018;-84
2022/06/26 15:18:14;;;;;;;0.40;0.40;;;;;;;29.22;34.40;96391.47;6110842;23;20050;-84
2022/06/26 15:20:42;;;;;;;0.50;0.50;;;;;;;29.20;34.71;96378.34;6109983;23;20036;-84
2022/06/26 15:23:11;;;;;;;1.95;0.45;;;;;;;29.21;34.76;96385.28;6110828;23;20053;-84
2022/06/26 15:25:38;;;;;;;0.50;0.50;;;;;;;29.22;34.58;96370.78;6109446;23;20023;-84
2022/06/26 15:28:06;;;;;;;0.98;0.50;;;;;;;29.25;34.73;96380.09;6109892;23;20054;-84
2022/06/26 15:30:35;;;;;;;0.73;0.70;;;;;;;29.26;34.61;96365.59;6108714;23;20038;-85
2022/06/26 15:33:03;;;;;;;0.63;0.50;;;;;;;29.29;35.26;96368.44;6109399;23;20117;-83
2022/06/26 15:35:30;;;;;;;1.25;0.52;;;;;;;29.30;34.51;96363.84;6109322;23;20053;-84
2022/06/26 15:37:58;;;;;;;0.82;0.60;;;;;;;29.31;34.90;96357.38;6108408;23;20022;-85
2022/06/26 15:40:27;;;;;;;0.45;0.45;;;;;;;29.30;34.62;96361.16;6106757;23;20030;-84
2022/06/26 15:42:55;;;;;;;2.00;0.75;;;;;;;29.30;35.25;96361.16;6107368;23;20056;-84
2022/06/26 15:45:23;;;;;;;1.15;0.70;;;;;;;29.30;34.66;96353.09;6107340;23;20026;-84
2022/06/26 15:47:50;;;;;;;0.70;0.60;;;;;;;29.30;35.04;96353.09;6106599;23;20518;-84
2022/06/26 15:50:18;;;;;;;1.42;0.47;;;;;;;29.29;34.42;96348.84;6106623;23;20026;-84
2022/06/26 15:52:53;;;;;;;5.28;0.73;;;;;;;29.27;34.37;96342.97;6105383;23;20026;-84
2022/06/26 15:55:20;;;;;;;0.45;0.45;;;;;;;29.27;33.83;96334.94;6105692;23;20019;-84
2022/06/26 15:57:49;;;;;;;1.70;0.50;;;;;;;29.26;33.16;96339.50;6105626;23;20022;-84
2022/06/26 16:00:17;;;;;;;0.63;0.50;;;;;;;29.25;33.55;96337.91;6104301;23;20261;-84
2022/06/26 16:02:45;;;;;;;1.15;0.90;;;;;;;29.24;34.14;96336.34;6104351;23;20022;-84
2022/06/26 16:05:12;;;;;;;0.40;0.40;;;;;;;29.24;33.97;96335.56;6104140;23;20026;-84
2022/06/26 16:07:40;;;;;;;0.82;0.57;;;;;;;29.23;33.54;96342.00;6103549;23;20526;-84
2022/06/26 16:10:08;;;;;;;0.30;0.30;;;;;;;29.21;33.86;96338.84;6102873;23;20078;-84
2022/06/26 16:12:36;;;;;;;1.48;0.65;;;;;;;29.20;34.41;96334.59;6104534;23;20391;-84
2022/06/26 16:15:07;;;;;;;0.30;0.30;;;;;;;29.19;34.38;96343.72;6104073;23;20026;-84
2022/06/26 16:17:34;;;;;;;0.70;0.70;;;;;;;29.17;34.39;96325.25;6114566;23;20046;-84
2022/06/26 16:20:02;;;;;;;0.60;0.60;;;;;;;29.16;34.45;96324.44;6111068;23;20054;-84
2022/06/26 16:28:00;;;;;;;1.20;0.68;;;;;;;29.20;34.95;96334.59;6111924;23;20049;-81
2022/06/26 16:30:29;;;;;;;0.90;0.85;;;;;;;29.19;34.38;96322.25;6110201;23;20069;-85
2022/06/26 16:32:57;;;;;;;1.50;0.60;;;;;;;29.20;35.00;96329.22;6109541;23;20042;-83
2022/06/26 16:35:25;;;;;;;0.32;0.30;;;;;;;29.20;35.12;96326.53;6109458;23;20037;-84
2022/06/26 16:37:54;;;;;;;1.13;0.50;;;;;;;29.20;35.21;96326.53;6108909;23;20037;-83
2022/06/26 16:40:22;;;;;;;0.50;0.50;;;;;;;29.17;35.06;96326.03;6108108;23;20459;-83
2022/06/26 16:42:50;;;;;;;0.70;0.50;;;;;;;29.16;35.04;96318.28;6109269;23;20490;-83
2022/06/26 16:45:18;;;;;;;0.60;0.60;;;;;;;29.16;35.51;96331.72;6109055;23;20029;-84
2022/06/26 16:47:47;;;;;;;0.63;0.47;;;;;;;29.15;34.95;96327.44;6108835;23;20057;-83
2022/06/26 16:50:15;;;;;;;0.60;0.60;;;;;;;29.13;35.53;96335.81;6108009;23;20034;-84
2022/06/26 16:52:42;;;;;;;0.60;0.50;;;;;;;29.09;34.66;96340.22;6110128;23;20033;-83
2022/06/26 16:55:10;;;;;;;0.50;0.50;;;;;;;29.03;35.17;96330.66;6109380;23;20058;-83
2022/06/26 16:57:38;;;;;;;1.80;0.70;;;;;;;28.99;35.16;96329.69;6105109;23;20018;-84
2022/06/26 17:00:09;;;;;;;3.13;0.50;;;;;;;28.96;35.02;96324.94;6103275;23;20022;-83
2022/06/26 17:02:37;;;;;;;0.57;0.40;;;;;;;28.92;35.29;96330.13;6104109;23;20026;-83
2022/06/26 17:05:07;;;;;;;0.75;0.75;;;;;;;28.91;35.67;96330.44;6103673;23;20466;-83
2022/06/26 17:07:35;;;;;;;0.85;0.68;;;;;;;28.87;35.47;96326.78;6103410;23;20018;-83
2022/06/26 17:10:02;;;;;;;1.33;0.55;;;;;;;28.84;35.88;96327.38;6103409;23;20050;-83
2022/06/26 17:12:30;;;;;;;1.45;0.63;;;;;;;28.81;36.38;96328.00;6105338;23;20018;-82
2022/06/26 17:14:58;;;;;;;0.85;0.47;;;;;;;28.78;36.40;96331.31;6104907;23;20014;-83
2022/06/26 17:17:25;;;;;;;0.80;0.80;;;;;;;28.76;37.22;96336.97;6106213;23;20070;-82
2022/06/26 17:19:55;;;;;;;2.72;0.60;;;;;;;28.73;37.02;96334.88;6106026;23;20022;-83
2022/06/26 17:22:25;;;;;;;0.55;0.55;;;;;;;28.69;37.23;96342.75;6103526;23;20022;-83
2022/06/26 17:24:53;;;;;;;0.90;0.50;;;;;;;28.67;37.37;96342.28;6104336;23;20093;-84
2022/06/26 17:27:20;;;;;;;1.05;0.70;;;;;;;28.64;38.14;96334.81;6105418;23;20082;-83
2022/06/26 17:29:48;;;;;;;0.63;0.63;;;;;;;28.61;37.91;96338.13;6119944;23;20046;-84
2022/06/26 17:32:15;;;;;;;0.80;0.50;;;;;;;28.59;38.79;96332.25;6120529;23;20023;-85
2022/06/26 17:34:44;;;;;;;1.70;0.68;;;;;;;28.56;39.20;96343.63;6114184;23;20035;-83
2022/06/26 17:37:11;;;;;;;0.93;0.75;;;;;;;28.51;39.82;96330.28;6112225;23;20034;-83
2022/06/26 17:39:42;;;;;;;0.70;0.65;;;;;;;28.46;40.37;96341.91;6109857;23;20034;-84
2022/06/26 17:42:10;;;;;;;1.45;0.60;;;;;;;28.41;40.32;96334.00;6108584;23;20077;-83
2022/06/26 17:44:37;;;;;;;3.55;0.70;;;;;;;28.37;40.52;96340.28;6104225;23;20026;-83
2022/06/26 17:49:51;;;;;;;1.85;0.70;;;;;;;28.26;41.58;96337.81;6101460;23;20057;-83
2022/06/26 17:52:19;;;;;;;0.73;0.73;;;;;;;28.22;41.53;96336.81;6102899;23;20066;-82
2022/06/26 17:54:48;;;;;;;1.02;0.45;;;;;;;28.18;41.29;96337.72;6123647;23;20012;-83
2022/06/26 17:57:20;;;;;;;2.03;0.75;;;;;;;28.12;41.58;96329.78;6124227;23;20026;-82
2022/06/26 19:28:01;;;;;;;3.58;0.80;;;;;;;26.61;43.28;96304.44;6048555;23;20110;-80
2022/06/26 19:30:28;;;;;;;1.92;0.75;;;;;;;26.58;43.30;96315.69;6153769;23;20462;-79
2022/06/26 19:32:57;;;;;;;0.85;0.85;;;;;;;26.54;43.35;96317.31;6154358;23;20026;-80
2022/06/26 19:35:25;;;;;;;1.02;1.00;;;;;;;26.54;43.70;96313.84;6154350;23;20041;-79
2022/06/26 19:37:52;;;;;;;1.33;0.80;;;;;;;26.49;43.72;96306.72;6140858;23;20048;-79
2022/06/26 19:40:20;;;;;;;1.75;0.88;;;;;;;26.47;43.79;96306.22;6125013;23;20033;-80
2022/06/26 19:42:48;;;;;;;1.10;1.00;;;;;;;26.44;43.47;96302.25;6125257;23;20040;-79
2022/06/26 19:45:18;;;;;;;0.73;0.60;;;;;;;26.40;42.70;96303.91;6125328;23;20057;-79
2022/06/26 19:47:45;;;;;;;1.67;0.50;;;;;;;26.37;42.56;96309.03;6126625;23;20025;-79
2022/06/26 19:52:56;;;;;;;0.95;0.63;;;;;;;26.29;42.88;96308.59;6122897;23;20029;-79
2022/06/26 19:55:24;;;;;;;1.58;0.80;;;;;;;26.26;43.02;96309.19;6126309;23;20038;-79
2022/06/26 19:57:52;;;;;;;0.70;0.70;;;;;;;26.23;42.66;96303.63;6127530;23;20049;-80
2022/06/26 20:00:24;;;;;;;1.35;1.17;;;;;;;26.18;42.64;96307.16;6128230;23;20022;-79
2022/06/26 20:03:55;;;;;;;0.65;0.65;;;;;;;26.14;42.90;96300.00;6126558;23;20022;-79
2022/06/26 20:05:41;;;;;;;0.45;0.45;;;;;;;26.07;43.17;96303.84;6126166;23;20025;-79
2022/06/26 20:08:09;;;;;;;0.77;0.52;;;;;;;26.00;43.28;96299.91;6126541;23;20022;-79
2022/06/26 20:10:57;;;;;;;0.50;0.50;;;;;;;25.96;43.17;96298.94;6126045;23;20682;-79
2022/06/26 20:13:25;;;;;;;0.70;0.70;;;;;;;25.92;43.55;96297.91;6126323;23;20081;-79
2022/06/26 20:15:57;;;;;;;1.15;0.55;;;;;;;25.89;43.50;96284.03;6127014;23;20022;-79
2022/06/26 20:18:25;;;;;;;0.60;0.60;;;;;;;25.85;43.70;96282.19;6126597;23;20053;-79
2022/06/26 20:20:53;;;;;;;1.35;0.98;;;;;;;25.81;43.74;96265.94;6126389;23;20068;-79
2022/06/26 20:23:21;;;;;;;1.50;0.65;;;;;;;25.78;43.65;96265.72;6126282;23;20038;-79
2022/06/26 20:25:48;;;;;;;1.67;0.60;;;;;;;25.76;43.98;96265.19;6127381;23;20022;-79
2022/06/26 20:28:16;;;;;;;1.70;0.50;;;;;;;25.72;43.98;96253.53;6126201;23;20097;-80
2022/06/26 20:30:44;;;;;;;0.82;0.47;;;;;;;25.70;44.27;96259.94;6126012;23;20053;-80
2022/06/26 20:33:13;;;;;;;0.90;0.45;;;;;;;25.69;44.61;96260.22;6126195;23;20049;-79
2022/06/26 20:35:42;;;;;;;2.00;0.93;;;;;;;25.69;44.55;96262.88;6126301;23;20030;-79
2022/06/26 20:38:09;;;;;;;1.58;0.90;;;;;;;25.67;44.55;96254.34;6126206;23;20498;-79
2022/06/26 20:40:37;;;;;;;2.17;0.70;;;;;;;25.66;44.99;96252.78;6126177;23;20106;-79
2022/06/26 20:43:05;;;;;;;0.98;0.60;;;;;;;25.64;45.21;96254.94;6126159;23;20544;-79
2022/06/26 20:45:33;;;;;;;1.08;0.55;;;;;;;25.61;45.09;96256.31;6126344;23;20458;-79
2022/06/26 20:48:01;;;;;;;1.30;0.82;;;;;;;25.59;45.41;96257.69;6126419;23;20049;-80
2022/06/26 20:50:30;;;;;;;0.98;0.52;;;;;;;25.56;45.60;96267.06;6125844;23;20022;-79
2022/06/26 20:52:58;;;;;;;1.40;0.70;;;;;;;25.53;45.58;96264.16;6126454;23;20113;-79
2022/06/26 20:55:26;;;;;;;1.48;0.52;;;;;;;25.49;45.72;96270.09;6126426;23;20022;-79
2022/06/26 20:57:54;;;;;;;0.70;0.65;;;;;;;25.46;45.96;96267.19;6125739;23;20060;-79
2022/06/26 21:00:22;;;;;;;0.85;0.60;;;;;;;25.44;45.87;96274.69;6125509;23;20811;-79
2022/06/26 21:02:51;;;;;;;1.55;0.80;;;;;;;25.40;45.83;96271.78;6126494;23;20029;-79
2022/06/26 21:05:20;;;;;;;2.75;0.80;;;;;;;25.37;45.99;96260.88;6126119;23;20056;-79
2022/06/26 21:07:49;;;;;;;1.05;0.82;;;;;;;25.33;46.08;96246.50;6126084;23;20109;-79
2022/06/26 21:10:17;;;;;;;0.98;0.70;;;;;;;25.29;46.10;96244.41;6125775;23;20173;-79
2022/06/26 21:12:49;;;;;;;0.60;0.60;;;;;;;25.26;46.31;96239.63;6126036;23;20028;-79
2022/06/26 21:15:17;;;;;;;0.63;0.63;;;;;;;25.25;46.07;96239.91;6125774;23;20089;-79
2022/06/26 21:17:45;;;;;;;0.90;0.50;;;;;;;25.21;45.99;96226.34;6125840;23;20056;-79
2022/06/26 21:20:13;;;;;;;1.25;0.70;;;;;;;25.20;46.40;96218.63;6125986;23;20470;-79
2022/06/26 21:22:41;;;;;;;3.78;0.80;;;;;;;25.18;46.28;96216.22;6126747;23;20362;-79
2022/06/26 21:25:11;;;;;;;0.68;0.57;;;;;;;25.16;46.15;96212.22;6127830;23;20030;-80
2022/06/26 21:27:39;;;;;;;0.50;0.50;;;;;;;25.15;46.06;96221.34;6126425;23;20414;-79
2022/06/26 21:30:08;;;;;;;0.50;0.50;;;;;;;25.14;46.09;96209.06;6125174;23;20041;-79
2022/06/26 21:32:36;;;;;;;0.50;0.50;;;;;;;25.13;45.83;96202.94;6125791;23;20054;-80
2022/06/26 21:35:05;;;;;;;1.58;0.60;;;;;;;25.13;45.55;96207.47;6125633;23;20017;-79
2022/06/26 21:37:33;;;;;;;0.52;0.52;;;;;;;25.11;45.50;96215.75;6125156;23;20493;-79
2022/06/26 21:40:01;;;;;;;0.57;0.57;;;;;;;25.09;45.68;96221.38;6125482;23;20100;-79
2022/06/26 21:42:30;;;;;;;0.60;0.60;;;;;;;25.08;45.47;96217.13;6125431;23;20033;-79
2022/06/26 21:44:57;;;;;;;0.50;0.47;;;;;;;25.08;45.74;96222.47;6125441;23;20474;-79
2022/06/26 21:47:25;;;;;;;2.38;0.80;;;;;;;25.08;45.66;96211.00;6125721;23;20022;-79
2022/06/26 21:52:34;;;;;;;2.38;0.75;;;;;;;25.04;45.76;96200.09;6125608;23;20022;-79
2022/06/26 21:55:04;;;;;;;0.70;0.55;;;;;;;25.03;46.12;96209.16;6125224;23;20085;-79
2022/06/26 21:57:33;;;;;;;1.45;0.63;;;;;;;25.00;46.04;96207.06;6125527;23;20026;-79
2022/06/26 22:00:01;;;;;;;1.95;0.60;;;;;;;24.98;46.49;96187.09;6124778;23;20017;-79
2022/06/26 22:02:29;;;;;;;1.02;0.50;;;;;;;24.94;46.51;96173.50;6125678;23;20030;-79
2022/06/26 22:04:56;;;;;;;0.90;0.90;;;;;;;24.94;46.49;96168.19;6125186;23;20458;-79
2022/06/26 22:07:29;;;;;;;0.60;0.60;;;;;;;24.92;46.23;96149.00;6125159;23;20026;-79
2022/06/26 22:09:56;;;;;;;1.50;0.57;;;;;;;24.91;46.17;96150.09;6125370;23;20076;-79
2022/06/26 22:12:24;;;;;;;1.40;0.40;;;;;;;24.91;46.38;96152.75;6125900;23;20364;-79
2022/06/26 22:14:53;;;;;;;0.50;0.50;;;;;;;24.89;46.24;96154.91;6125432;23;20018;-79
2022/06/26 22:17:21;;;;;;;0.60;0.60;;;;;;;24.87;46.42;96159.72;6125512;23;20402;-79
2022/06/26 22:19:48;;;;;;;0.50;0.50;;;;;;;24.85;46.68;96153.88;6124905;23;20029;-79
2022/06/26 22:22:16;;;;;;;0.50;0.50;;;;;;;24.84;46.57;96141.63;6125232;23;20096;-79
2022/06/26 22:24:43;;;;;;;1.17;0.50;;;;;;;24.83;46.44;96151.47;6125401;23;20029;-79
2022/06/26 22:29:57;;;;;;;2.00;0.70;;;;;;;24.78;47.03;96142.75;6125675;23;20038;-79
2022/06/26 22:32:30;;;;;;;1.00;0.65;;;;;;;24.75;47.02;96145.97;6126938;23;20402;-80
2022/06/26 22:34:57;;;;;;;1.85;0.73;;;;;;;24.74;46.97;96147.06;6126739;23;20024;-80
2022/06/26 22:37:25;;;;;;;0.57;0.57;;;;;;;24.71;47.07;96140.44;6125215;23;20026;-79
2022/06/26 22:39:53;;;;;;;2.70;0.60;;;;;;;24.67;46.96;96142.06;6125393;23;20026;-79
2022/06/26 22:42:20;;;;;;;1.52;0.60;;;;;;;24.65;46.87;96138.91;6124687;23;20077;-79
2022/06/26 22:44:48;;;;;;;1.25;0.93;;;;;;;24.63;46.82;96131.16;6125285;23;20403;-79
2022/06/26 22:47:17;;;;;;;0.60;0.55;;;;;;;24.60;46.55;96126.41;6125301;23;20517;-79
2022/06/26 22:49:45;;;;;;;0.80;0.80;;;;;;;24.59;46.65;96124.81;6125225;23;20097;-79
2022/06/26 22:52:12;;;;;;;1.60;1.08;;;;;;;24.57;46.11;96120.84;6124969;23;20033;-79
2022/06/26 22:54:40;;;;;;;3.78;0.80;;;;;;;24.54;46.27;96126.75;6125390;23;20415;-79
2022/06/26 22:57:07;;;;;;;3.17;0.68;;;;;;;24.52;46.14;96116.34;6125110;23;20025;-80
2022/06/26 22:59:35;;;;;;;0.90;0.80;;;;;;;24.51;46.04;96117.44;6125085;23;20053;-79
2022/06/26 23:02:04;;;;;;;0.50;0.50;;;;;;;24.52;46.23;96111.03;6124954;23;20077;-79
2022/06/26 23:04:33;;;;;;;0.52;0.52;;;;;;;24.51;45.66;96109.44;6124799;23;20118;-79
2022/06/26 23:07:01;;;;;;;1.00;0.70;;;;;;;24.50;45.62;96099.06;6125171;23;20046;-79
2022/06/26 23:09:29;;;;;;;0.70;0.63;;;;;;;24.50;45.87;96085.72;6125117;23;20026;-79
2022/06/26 23:11:56;;;;;;;0.90;0.85;;;;;;;24.50;45.65;96091.06;6124819;23;20022;-79
2022/06/26 23:14:24;;;;;;;0.50;0.50;;;;;;;24.48;44.91;96083.34;6124592;23;20089;-79
2022/06/26 23:16:51;;;;;;;0.50;0.50;;;;;;;24.48;45.08;96086.00;6125361;23;20051;-79
2022/06/26 23:19:19;;;;;;;1.85;0.93;;;;;;;24.47;44.45;96084.41;6125395;23;20362;-79
2022/06/26 23:21:49;;;;;;;0.60;0.52;;;;;;;24.47;44.71;96095.06;6125727;23;20021;-79
2022/06/26 23:24:17;;;;;;;0.30;0.30;;;;;;;24.46;44.77;96094.25;6126775;23;20072;-79
2022/06/26 23:26:44;;;;;;;1.67;0.52;;;;;;;24.45;44.73;96095.34;6127064;23;20402;-79
2022/06/26 23:29:12;;;;;;;0.45;0.43;;;;;;;24.42;44.97;96098.56;6127012;23;20410;-79
2022/06/26 23:31:40;;;;;;;0.82;0.60;;;;;;;24.43;45.13;96096.69;6126476;23;20053;-79
2022/06/26 23:34:07;;;;;;;0.50;0.50;;;;;;;24.41;44.73;96109.50;6127038;23;20041;-79
2022/06/26 23:36:35;;;;;;;0.85;0.50;;;;;;;24.40;45.06;96108.72;6126625;23;20021;-79
2022/06/26 23:39:05;;;;;;;0.73;0.50;;;;;;;24.39;44.56;96125.78;6126357;23;20093;-79
2022/06/26 23:41:32;;;;;;;0.65;0.50;;;;;;;24.39;44.99;96141.78;6126770;23;20058;-79
2022/06/26 23:44:00;;;;;;;0.50;0.50;;;;;;;24.40;44.84;96153.22;6126634;23;20093;-79
2022/06/26 23:46:28;;;;;;;0.47;0.47;;;;;;;24.38;44.40;96164.19;6126656;23;20033;-79
2022/06/26 23:48:55;;;;;;;0.68;0.50;;;;;;;24.37;44.56;96164.47;6126460;23;20025;-79
2022/06/26 23:51:23;;;;;;;0.70;0.50;;;;;;;24.36;44.56;96194.84;6126663;23;20053;-79
2022/06/26 23:53:50;;;;;;;2.58;0.40;;;;;;;24.37;44.92;96223.09;6126474;23;20500;-79
2022/06/26 23:56:19;;;;;;;0.93;0.60;;;;;;;24.38;44.68;96267.34;6126814;23;20018;-79
2022/06/26 23:58:47;;;;;;;0.50;0.43;;;;;;;24.38;44.61;96283.34;6126829;23;20093;-79
